createdAt,value
2019-02-15T00:00:52.123Z,49.13
2019-02-15T00:03:22.804Z,39.20
2019-02-15T00:05:53.221Z,43.05
2019-02-15T00:08:23.892Z,35.40
2019-02-15T00:10:54.899Z,40.92
2019-02-15T00:13:26.061Z,36.20
2019-02-15T00:15:57.541Z,44.58
2019-02-15T00:18:50.371Z,38.78
2019-02-15T00:21:27.335Z,36.15
2019-02-15T00:23:58.735Z,38.25
2019-02-15T00:26:29.906Z,44.03
2019-02-15T00:29:02.300Z,35.85
2019-02-15T00:31:33.466Z,46.50
2019-02-15T00:34:06.187Z,39.00
2019-02-15T00:36:37.380Z,35.83
2019-02-15T00:39:09.705Z,38.30
2019-02-15T00:41:41.219Z,37.70
2019-02-15T00:44:12.479Z,42.98
2019-02-15T00:46:54.290Z,43.23
2019-02-15T00:49:35.295Z,39.00
2019-02-15T00:52:31.366Z,38.28
2019-02-15T00:55:22.133Z,38.35
2019-02-15T00:58:14.441Z,37.25
2019-02-15T01:00:55.191Z,39.08
2019-02-15T01:03:40.834Z,36.83
2019-02-15T01:06:27.839Z,40.20
2019-02-15T01:09:09.502Z,37.90
2019-02-15T01:11:57.393Z,41.20
2019-02-15T01:14:28.650Z,38.17
2019-02-15T01:17:00.307Z,41.53
2019-02-15T01:19:31.823Z,37.98
2019-02-15T01:22:03.224Z,39.10
2019-02-15T01:24:34.658Z,40.15
2019-02-15T01:27:18.162Z,40.83
2019-02-15T01:30:15.530Z,36.88
2019-02-15T01:33:20.601Z,39.27
2019-02-15T01:36:19.232Z,42.53
2019-02-15T01:39:14.851Z,43.13
2019-02-15T01:42:03.501Z,40.23
2019-02-15T01:44:59.095Z,43.83
2019-02-15T01:47:34.690Z,38.28
2019-02-15T01:50:05.970Z,34.08
2019-02-15T01:52:36.663Z,40.10
2019-02-15T01:55:08.027Z,38.42
2019-02-15T01:57:39.098Z,34.10
2019-02-15T02:00:11.121Z,35.50
2019-02-15T02:02:42.547Z,41.60
2019-02-15T02:05:13.775Z,36.70
2019-02-15T02:07:44.829Z,35.45
2019-02-15T02:10:14.397Z,33.60
2019-02-15T02:12:45.732Z,39.67
2019-02-15T02:15:15.935Z,33.40
2019-02-15T02:17:47.671Z,49.95
2019-02-15T02:20:18.754Z,34.55
2019-02-15T02:22:48.566Z,33.98
2019-02-15T02:25:20.044Z,34.83
2019-02-15T02:27:51.460Z,34.60
2019-02-15T02:30:24.014Z,32.60
2019-02-15T02:32:55.498Z,32.75
2019-02-15T02:35:26.450Z,33.78
2019-02-15T02:37:57.808Z,32.88
2019-02-15T02:40:28.992Z,34.88
2019-02-15T02:42:58.901Z,34.63
2019-02-15T02:45:28.658Z,33.50
2019-02-15T02:48:00.106Z,31.57
2019-02-15T02:50:30.980Z,33.35
2019-02-15T02:53:02.279Z,33.02
2019-02-15T02:55:33.218Z,35.25
2019-02-15T02:58:04.534Z,28.80
2019-02-15T03:00:35.887Z,32.65
2019-02-15T03:03:06.856Z,32.53
2019-02-15T03:05:37.314Z,37.35
2019-02-15T03:08:08.224Z,32.35
2019-02-15T03:10:39.538Z,39.13
2019-02-15T03:13:10.928Z,39.13
2019-02-15T03:15:41.677Z,37.13
2019-02-15T03:18:12.797Z,38.67
2019-02-15T03:20:43.593Z,37.83
2019-02-15T03:23:14.983Z,32.85
2019-02-15T03:25:45.921Z,30.75
2019-02-15T03:28:17.259Z,34.15
2019-02-15T03:30:48.395Z,38.83
2019-02-15T03:33:20.108Z,32.58
2019-02-15T03:35:56.798Z,35.23
2019-02-15T03:38:41.831Z,35.75
2019-02-15T03:41:32.827Z,30.80
2019-02-15T03:44:03.823Z,32.35
2019-02-15T03:46:34.693Z,31.37
2019-02-15T03:49:05.764Z,29.63
2019-02-15T03:51:35.997Z,32.48
2019-02-15T03:54:06.934Z,34.10
2019-02-15T03:56:38.035Z,31.52
2019-02-15T03:59:09.529Z,28.80
2019-02-15T04:01:40.963Z,30.57
2019-02-15T04:04:10.974Z,33.23
2019-02-15T04:06:41.808Z,35.40
2019-02-15T04:09:11.602Z,35.30
2019-02-15T04:11:43.145Z,41.95
2019-02-15T04:14:14.676Z,36.73
2019-02-15T04:16:46.102Z,32.93
2019-02-15T04:19:17.404Z,38.20
2019-02-15T04:21:48.769Z,39.35
2019-02-15T04:24:18.258Z,28.70
2019-02-15T04:26:49.251Z,33.30
2019-02-15T04:29:20.547Z,36.05
2019-02-15T04:31:50.790Z,36.28
2019-02-15T04:34:22.023Z,33.75
2019-02-15T04:36:53.118Z,33.70
2019-02-15T04:39:23.926Z,32.50
2019-02-15T04:41:53.384Z,34.13
2019-02-15T04:44:24.141Z,30.43
2019-02-15T04:46:55.760Z,36.50
2019-02-15T04:49:26.570Z,43.33
2019-02-15T04:51:57.749Z,35.50
2019-02-15T04:54:28.970Z,35.25
2019-02-15T04:57:00.164Z,30.17
2019-02-15T04:59:31.140Z,31.65
2019-02-15T05:02:00.624Z,32.35
2019-02-15T05:04:30.150Z,32.45
2019-02-15T05:06:59.626Z,28.23
2019-02-15T05:09:29.045Z,34.05
2019-02-15T05:11:58.894Z,36.35
2019-02-15T05:14:28.373Z,28.80
2019-02-15T05:16:57.852Z,29.55
2019-02-15T05:19:27.356Z,30.55
2019-02-15T05:21:56.772Z,28.35
2019-02-15T05:24:26.177Z,31.87
2019-02-15T05:26:55.693Z,31.25
2019-02-15T05:29:25.090Z,35.83
2019-02-15T05:31:54.576Z,31.77
2019-02-15T05:34:24.152Z,36.95
2019-02-15T05:36:53.622Z,30.95
2019-02-15T05:39:23.126Z,35.08
2019-02-15T05:41:52.704Z,36.30
2019-02-15T05:44:22.103Z,38.15
2019-02-15T05:46:51.588Z,34.83
2019-02-15T05:49:22.872Z,34.27
2019-02-15T05:51:52.293Z,34.20
2019-02-15T05:54:21.720Z,30.90
2019-02-15T05:56:51.123Z,34.33
2019-02-15T05:59:20.860Z,32.88
2019-02-15T06:01:50.369Z,32.90
2019-02-15T06:04:19.772Z,29.63
2019-02-15T06:06:49.166Z,32.67
2019-02-15T06:09:18.605Z,34.20
2019-02-15T06:11:48.066Z,35.03
2019-02-15T06:14:17.607Z,35.38
2019-02-15T06:16:47.125Z,27.65
2019-02-15T06:19:16.567Z,30.65
2019-02-15T06:21:46.084Z,35.63
2019-02-15T06:24:15.472Z,34.23
2019-02-15T06:26:44.877Z,34.95
2019-02-15T06:29:14.393Z,35.52
2019-02-15T06:31:43.862Z,31.75
2019-02-15T06:34:13.265Z,32.63
2019-02-15T06:36:42.694Z,31.60
2019-02-15T06:39:12.172Z,37.17
2019-02-15T06:41:41.640Z,28.20
2019-02-15T06:44:11.060Z,33.33
2019-02-15T06:46:40.485Z,29.90
2019-02-15T06:49:09.953Z,29.50
2019-02-15T06:51:39.496Z,32.78
2019-02-15T06:54:09.004Z,39.58
2019-02-15T06:56:38.573Z,35.58
2019-02-15T06:59:42.260Z,36.75
2019-02-15T07:02:26.336Z,33.23
2019-02-15T07:05:17.677Z,37.23
2019-02-15T07:07:47.119Z,39.05
2019-02-15T07:10:16.593Z,33.67
2019-02-15T07:12:45.987Z,36.53
2019-02-15T07:15:15.511Z,39.67
2019-02-15T07:17:46.378Z,36.30
2019-02-15T07:20:15.921Z,34.92
2019-02-15T07:22:45.637Z,38.42
2019-02-15T07:25:15.170Z,37.83
2019-02-15T07:27:44.681Z,37.90
2019-02-15T07:30:15.666Z,36.03
2019-02-15T07:32:46.444Z,36.63
2019-02-15T07:35:15.862Z,29.35
2019-02-15T07:37:45.260Z,38.23
2019-02-15T07:40:14.694Z,37.40
2019-02-15T07:42:44.096Z,34.83
2019-02-15T07:45:13.579Z,38.98
2019-02-15T07:47:43.070Z,37.10
2019-02-15T07:50:13.482Z,34.05
2019-02-15T07:52:44.078Z,34.83
2019-02-15T07:55:13.554Z,36.58
2019-02-15T07:57:43.087Z,28.55
2019-02-15T08:00:13.721Z,32.40
2019-02-15T08:02:43.192Z,27.65
2019-02-15T08:05:12.700Z,29.85
2019-02-15T08:07:42.212Z,35.75
2019-02-15T08:10:12.416Z,35.10
2019-02-15T08:12:41.921Z,31.33
2019-02-15T08:15:11.610Z,32.15
2019-02-15T08:17:41.100Z,33.20
2019-02-15T08:20:11.292Z,31.40
2019-02-15T08:22:40.713Z,28.60
2019-02-15T08:25:10.358Z,36.03
2019-02-15T08:27:39.836Z,35.08
2019-02-15T08:30:10.546Z,36.83
2019-02-15T08:32:39.982Z,30.75
2019-02-15T08:35:09.972Z,34.35
2019-02-15T08:37:39.400Z,34.92
2019-02-15T08:40:09.824Z,30.48
2019-02-15T08:42:40.494Z,35.30
2019-02-15T08:45:11.605Z,33.28
2019-02-15T08:47:41.130Z,37.40
2019-02-15T08:50:10.868Z,27.22
2019-02-15T08:52:40.288Z,38.78
2019-02-15T08:55:10.179Z,38.10
2019-02-15T08:57:39.644Z,34.03
2019-02-15T09:00:10.240Z,32.20
2019-02-15T09:02:39.672Z,32.70
2019-02-15T09:05:11.352Z,37.13
2019-02-15T09:07:40.874Z,33.10
2019-02-15T09:10:11.432Z,40.50
2019-02-15T09:12:40.838Z,37.35
2019-02-15T09:15:13.420Z,38.42
2019-02-15T09:17:42.898Z,45.48
2019-02-15T09:20:12.848Z,52.78
2019-02-15T09:22:42.336Z,55.98
2019-02-15T09:25:12.948Z,53.15
2019-02-15T09:28:08.620Z,52.62
2019-02-15T09:30:38.148Z,56.95
2019-02-15T09:33:07.641Z,46.95
2019-02-15T09:35:37.048Z,52.88
2019-02-15T09:38:07.409Z,49.45
2019-02-15T09:40:36.821Z,47.35
2019-02-15T09:43:06.299Z,48.55
2019-02-15T09:45:35.861Z,50.03
2019-02-15T09:48:07.071Z,48.10
2019-02-15T09:50:36.581Z,44.00
2019-02-15T09:53:06.178Z,46.25
2019-02-15T09:55:37.153Z,44.45
2019-02-15T09:58:06.856Z,48.92
2019-02-15T10:00:36.750Z,49.13
2019-02-15T10:03:06.234Z,50.40
2019-02-15T10:05:35.718Z,49.88
2019-02-15T10:08:05.248Z,47.33
2019-02-15T10:10:34.664Z,49.55
2019-02-15T10:13:04.223Z,42.88
2019-02-15T10:15:34.764Z,54.90
2019-02-15T10:18:04.176Z,57.75
2019-02-15T10:20:33.597Z,46.68
2019-02-15T10:23:03.093Z,48.10
2019-02-15T10:25:33.537Z,57.17
2019-02-15T10:28:02.997Z,48.60
2019-02-15T10:30:32.417Z,49.77
2019-02-15T10:33:01.965Z,61.63
2019-02-15T10:35:31.481Z,54.30
2019-02-15T10:38:02.447Z,49.00
2019-02-15T10:40:31.896Z,56.77
2019-02-15T10:43:01.377Z,47.45
2019-02-15T10:45:30.781Z,52.23
2019-02-15T10:48:00.202Z,51.28
2019-02-15T10:50:30.197Z,54.13
2019-02-15T10:53:00.669Z,48.43
2019-02-15T10:55:31.194Z,57.90
2019-02-15T10:58:00.682Z,59.95
2019-02-15T11:00:30.165Z,54.17
2019-02-15T11:02:59.807Z,57.97
2019-02-15T11:05:29.281Z,59.40
2019-02-15T11:07:58.775Z,55.40
2019-02-15T11:10:28.346Z,61.00
2019-02-15T11:12:57.770Z,60.50
2019-02-15T11:15:27.201Z,61.27
2019-02-15T11:17:57.621Z,68.17
2019-02-15T11:20:27.246Z,58.77
2019-02-15T11:22:56.861Z,66.83
2019-02-15T11:25:26.297Z,67.43
2019-02-15T11:27:55.821Z,62.83
2019-02-15T11:30:25.229Z,66.00
2019-02-15T11:32:54.707Z,61.17
2019-02-15T11:35:24.309Z,61.13
2019-02-15T11:37:53.756Z,81.53
2019-02-15T11:40:23.331Z,74.57
2019-02-15T11:42:53.856Z,62.80
2019-02-15T11:45:23.500Z,68.47
2019-02-15T11:47:52.932Z,65.00
2019-02-15T11:50:22.347Z,70.77
2019-02-15T11:52:51.864Z,59.13
2019-02-15T11:55:21.368Z,62.40
2019-02-15T11:57:50.912Z,63.60
2019-02-15T12:00:25.149Z,68.53
2019-02-15T12:02:54.650Z,65.10
2019-02-15T12:05:24.389Z,60.20
2019-02-15T12:07:53.923Z,56.77
2019-02-15T12:10:25.156Z,66.80
2019-02-15T12:12:54.634Z,61.07
2019-02-15T12:15:24.113Z,71.30
2019-02-15T12:17:53.613Z,74.27
2019-02-15T12:20:23.213Z,66.53
2019-02-15T12:22:52.621Z,60.67
2019-02-15T12:25:22.028Z,64.63
2019-02-15T12:27:51.609Z,66.80
2019-02-15T12:30:21.016Z,59.77
2019-02-15T12:32:50.465Z,50.50
2019-02-15T12:35:19.942Z,58.23
2019-02-15T12:37:50.837Z,67.97
2019-02-15T12:40:20.272Z,70.30
2019-02-15T12:42:49.684Z,63.23
2019-02-15T12:45:19.412Z,55.63
2019-02-15T12:47:48.887Z,61.83
2019-02-15T12:50:18.445Z,63.77
2019-02-15T12:52:47.940Z,64.17
2019-02-15T12:55:17.412Z,66.00
2019-02-15T12:57:46.840Z,64.10
2019-02-15T13:00:16.268Z,61.60
2019-02-15T13:02:45.677Z,63.20
2019-02-15T13:05:15.459Z,57.83
2019-02-15T13:07:44.920Z,57.63
2019-02-15T13:10:16.321Z,63.27
2019-02-15T13:12:45.817Z,53.47
2019-02-15T13:15:15.233Z,62.93
2019-02-15T13:17:44.729Z,66.13
2019-02-15T13:20:15.700Z,63.00
2019-02-15T13:22:45.178Z,62.40
2019-02-15T13:25:14.596Z,62.90
2019-02-15T13:27:44.037Z,59.50
2019-02-15T13:30:13.544Z,62.63
2019-02-15T13:32:42.984Z,64.40
2019-02-15T13:35:14.112Z,66.50
2019-02-15T13:37:43.638Z,64.33
2019-02-15T13:40:13.934Z,70.53
2019-02-15T13:42:43.449Z,71.23
2019-02-15T13:45:13.060Z,70.60
2019-02-15T13:47:42.537Z,74.03
2019-02-15T13:50:12.348Z,68.10
2019-02-15T13:52:41.756Z,65.80
2019-02-15T13:55:11.379Z,66.93
2019-02-15T13:57:40.899Z,66.43
2019-02-15T14:00:11.444Z,64.00
2019-02-15T14:02:40.870Z,64.83
2019-02-15T14:05:10.736Z,68.13
2019-02-15T14:07:40.195Z,60.83
2019-02-15T14:10:10.674Z,61.93
2019-02-15T14:12:40.262Z,60.40
2019-02-15T14:15:11.210Z,62.47
2019-02-15T14:17:44.760Z,60.30
2019-02-15T14:20:12.002Z,60.30
2019-02-15T14:22:41.555Z,62.27
2019-02-15T14:25:11.062Z,60.20
2019-02-15T14:27:40.469Z,68.03
2019-02-15T14:30:10.700Z,55.00
2019-02-15T14:32:40.118Z,60.27
2019-02-15T14:35:10.029Z,54.83
2019-02-15T14:37:39.528Z,56.27
2019-02-15T14:40:09.693Z,60.57
2019-02-15T14:42:39.218Z,62.00
2019-02-15T14:45:10.227Z,57.77
2019-02-15T14:47:40.761Z,59.60
2019-02-15T14:50:11.530Z,57.83
2019-02-15T14:52:41.016Z,57.33
2019-02-15T14:55:10.595Z,57.63
2019-02-15T14:57:40.087Z,56.20
2019-02-15T15:00:11.201Z,52.50
2019-02-15T15:02:40.820Z,59.73
2019-02-15T15:05:10.572Z,63.67
2019-02-15T15:07:39.986Z,58.23
2019-02-15T15:10:09.486Z,56.50
2019-02-15T15:12:38.905Z,59.57
2019-02-15T15:15:11.609Z,57.90
2019-02-15T15:17:40.741Z,62.63
2019-02-15T15:20:11.294Z,61.07
2019-02-15T15:22:40.781Z,55.07
2019-02-15T15:25:12.215Z,56.23
2019-02-15T15:27:41.887Z,62.70
2019-02-15T15:30:12.229Z,60.70
2019-02-15T15:32:41.960Z,56.93
2019-02-15T15:35:11.497Z,59.60
2019-02-15T15:37:40.979Z,62.83
2019-02-15T15:40:11.708Z,62.23
2019-02-15T15:42:41.112Z,62.50
2019-02-15T15:45:10.996Z,66.30
2019-02-15T15:47:40.502Z,64.87
2019-02-15T15:50:11.034Z,60.40
2019-02-15T15:52:40.506Z,70.93
2019-02-15T15:55:10.630Z,63.00
2019-02-15T15:57:40.115Z,63.87
2019-02-15T16:00:11.016Z,64.70
2019-02-15T16:02:40.580Z,63.13
2019-02-15T16:05:10.419Z,59.30
2019-02-15T16:07:39.928Z,60.67
2019-02-15T16:10:10.969Z,60.97
2019-02-15T16:12:40.814Z,63.67
2019-02-15T16:15:11.411Z,65.40
2019-02-15T16:17:40.957Z,63.03
2019-02-15T16:20:11.012Z,66.17
2019-02-15T16:22:40.456Z,65.83
2019-02-15T16:25:09.989Z,63.53
2019-02-15T16:27:40.344Z,69.40
2019-02-15T16:30:11.120Z,71.30
2019-02-15T16:32:40.569Z,73.67
2019-02-15T16:35:10.576Z,79.53
2019-02-15T16:37:40.078Z,67.57
2019-02-15T16:40:11.825Z,65.07
2019-02-15T16:42:41.485Z,68.97
2019-02-15T16:45:13.292Z,68.90
2019-02-15T16:47:44.591Z,72.47
2019-02-15T16:50:14.285Z,71.37
2019-02-15T16:52:43.787Z,70.47
2019-02-15T16:55:13.599Z,72.23
2019-02-15T16:57:43.269Z,64.20
2019-02-15T17:00:12.909Z,66.90
2019-02-15T17:02:42.489Z,73.30
2019-02-15T17:05:12.601Z,69.17
2019-02-15T17:07:42.135Z,75.53
2019-02-15T17:10:11.925Z,70.60
2019-02-15T17:12:43.226Z,72.37
2019-02-15T17:15:13.044Z,71.93
2019-02-15T17:17:42.622Z,67.97
2019-02-15T17:20:12.233Z,78.00
2019-02-15T17:22:41.737Z,66.80
2019-02-15T17:25:11.173Z,82.53
2019-02-15T17:27:40.689Z,67.03
2019-02-15T17:30:10.440Z,73.13
2019-02-15T17:32:39.854Z,71.13
2019-02-15T17:35:09.785Z,74.23
2019-02-15T17:37:39.198Z,74.73
2019-02-15T17:40:09.931Z,70.10
2019-02-15T17:42:39.426Z,83.70
2019-02-15T17:45:09.753Z,78.37
2019-02-15T17:47:39.264Z,67.50
2019-02-15T17:50:09.079Z,73.57
2019-02-15T17:52:38.575Z,77.17
2019-02-15T17:55:08.149Z,76.60
2019-02-15T17:57:37.795Z,68.13
2019-02-15T18:00:08.317Z,79.00
2019-02-15T18:02:37.805Z,83.63
2019-02-15T18:05:09.642Z,82.57
2019-02-15T18:07:39.135Z,71.50
2019-02-15T18:10:08.637Z,77.23
2019-02-15T18:12:39.173Z,78.13
2019-02-15T18:15:08.796Z,84.87
2019-02-15T18:17:39.811Z,74.13
2019-02-15T18:20:09.348Z,80.20
2019-02-15T18:22:38.854Z,85.37
2019-02-15T18:25:08.475Z,84.80
2019-02-15T18:27:37.964Z,79.57
2019-02-15T18:30:08.636Z,85.50
2019-02-15T18:32:38.112Z,74.83
2019-02-15T18:35:07.688Z,79.43
2019-02-15T18:37:37.162Z,82.10
2019-02-15T18:40:07.366Z,83.77
2019-02-15T18:42:37.051Z,80.60
2019-02-15T18:45:07.490Z,77.40
2019-02-15T18:47:36.923Z,85.30
2019-02-15T18:50:06.524Z,85.03
2019-02-15T18:52:37.086Z,98.80
2019-02-15T18:55:08.269Z,82.63
2019-02-15T18:57:37.757Z,95.70
2019-02-15T19:00:09.473Z,105.70
2019-02-15T19:02:38.957Z,90.17
2019-02-15T19:05:09.749Z,89.80
2019-02-15T19:07:58.205Z,102.50
2019-02-15T19:10:27.620Z,109.13
2019-02-15T19:12:58.510Z,115.97
2019-02-15T19:15:27.953Z,101.83
2019-02-15T19:17:57.364Z,115.83
2019-02-15T19:20:26.852Z,102.63
2019-02-15T19:22:56.368Z,111.30
2019-02-15T19:25:25.862Z,124.73
2019-02-15T19:27:55.355Z,127.03
2019-02-15T19:30:25.954Z,116.33
2019-02-15T19:32:55.828Z,121.77
2019-02-15T19:35:25.264Z,130.60
2019-02-15T19:37:54.692Z,118.03
2019-02-15T19:40:24.132Z,115.27
2019-02-15T19:42:54.157Z,119.13
2019-02-15T19:45:23.568Z,135.40
2019-02-15T19:47:53.083Z,118.87
2019-02-15T19:50:22.568Z,128.47
2019-02-15T19:52:52.005Z,121.83
2019-02-15T19:55:22.429Z,129.50
2019-02-15T19:57:53.309Z,138.43
2019-02-15T20:00:22.764Z,117.17
2019-02-15T20:02:52.247Z,112.07
2019-02-15T20:05:21.730Z,134.47
2019-02-15T20:07:51.166Z,116.57
2019-02-15T20:10:21.855Z,121.47
2019-02-15T20:12:51.374Z,116.10
2019-02-15T20:15:20.797Z,99.33
2019-02-15T20:17:50.216Z,99.97
2019-02-15T20:20:19.673Z,86.53
2019-02-15T20:22:49.112Z,85.20
2019-02-15T20:25:18.596Z,71.67
2019-02-15T20:27:48.073Z,77.43
2019-02-15T20:30:18.665Z,71.30
2019-02-15T20:32:49.180Z,80.80
2019-02-15T20:35:18.592Z,73.27
2019-02-15T20:37:48.158Z,71.57
2019-02-15T20:40:17.734Z,72.30
2019-02-15T20:42:47.245Z,72.90
2019-02-15T20:45:18.468Z,66.67
2019-02-15T20:47:48.079Z,68.53
2019-02-15T20:50:17.749Z,69.03
2019-02-15T20:52:48.721Z,73.73
2019-02-15T20:55:18.161Z,73.90
2019-02-15T20:57:47.648Z,73.47
2019-02-15T21:00:22.246Z,67.87
2019-02-15T21:02:51.739Z,70.40
2019-02-15T21:05:21.244Z,67.03
2019-02-15T21:07:50.757Z,74.77
2019-02-15T21:10:22.080Z,71.85
2019-02-15T21:12:51.850Z,66.63
2019-02-15T21:15:21.344Z,65.28
2019-02-15T21:17:50.869Z,68.47
2019-02-15T21:20:20.365Z,68.67
2019-02-15T21:22:49.857Z,72.75
2019-02-15T21:25:19.304Z,59.98
2019-02-15T21:27:48.752Z,66.57
2019-02-15T21:30:18.326Z,68.42
2019-02-15T21:32:47.897Z,72.90
2019-02-15T21:35:17.432Z,63.38
2019-02-15T21:37:46.931Z,82.10
2019-02-15T21:40:16.628Z,59.30
2019-02-15T21:42:46.184Z,71.50
2019-02-15T21:45:16.697Z,63.87
2019-02-15T21:47:57.990Z,65.45
2019-02-15T21:50:30.309Z,68.78
2019-02-15T21:52:59.904Z,66.85
2019-02-15T21:55:29.338Z,59.80
2019-02-15T21:58:01.384Z,62.70
2019-02-15T22:00:30.073Z,67.92
2019-02-15T22:03:00.588Z,64.15
2019-02-15T22:05:30.073Z,64.35
2019-02-15T22:07:59.645Z,64.20
2019-02-15T22:10:29.073Z,61.92
2019-02-15T22:12:58.569Z,57.05
2019-02-15T22:15:28.008Z,57.83
2019-02-15T22:17:57.457Z,54.42
2019-02-15T22:20:27.195Z,57.27
2019-02-15T22:22:56.765Z,58.42
2019-02-15T22:25:26.341Z,57.62
2019-02-15T22:27:55.794Z,57.08
2019-02-15T22:30:25.209Z,54.95
2019-02-15T22:32:54.661Z,68.07
2019-02-15T22:35:24.106Z,67.70
2019-02-15T22:37:53.608Z,62.48
2019-02-15T22:40:27.737Z,56.68
2019-02-15T22:42:57.809Z,57.90
2019-02-15T22:45:27.228Z,55.35
2019-02-15T22:47:56.668Z,63.75
2019-02-15T22:50:35.281Z,57.15
2019-02-15T22:52:58.237Z,59.83
2019-02-15T22:55:27.732Z,55.95
2019-02-15T22:57:57.147Z,57.90
2019-02-15T23:00:39.907Z,59.60
2019-02-15T23:03:09.393Z,60.03
2019-02-15T23:05:38.870Z,55.98
2019-02-15T23:08:09.308Z,57.53
2019-02-15T23:10:38.720Z,54.63
2019-02-15T23:13:08.250Z,54.08
2019-02-15T23:15:37.737Z,58.05
2019-02-15T23:18:07.232Z,53.23
2019-02-15T23:20:44.868Z,55.95
2019-02-15T23:23:08.990Z,59.48
2019-02-15T23:25:38.544Z,55.85
2019-02-15T23:28:07.990Z,49.35
2019-02-15T23:30:37.464Z,56.00
2019-02-15T23:33:06.945Z,53.80
2019-02-15T23:35:36.448Z,55.48
2019-02-15T23:38:05.877Z,52.43
2019-02-15T23:40:35.333Z,54.20
2019-02-15T23:43:04.837Z,53.73
2019-02-15T23:45:34.249Z,52.90
2019-02-15T23:48:03.748Z,54.10
2019-02-15T23:50:33.255Z,49.77
2019-02-15T23:53:03.837Z,62.53
2019-02-15T23:55:33.264Z,55.12
2019-02-15T23:58:02.693Z,52.55
